Home > Products > Valid Products > TAF

000
FTUS46 KOTX 222322
TAFSFF
TAF
KSFF 222322Z 2300/2324 02006KT P6SM VCTS SCT070CB BKN110
      TEMPO 2300/2302 VRB12G26KT
     FM230200 VRB04KT P6SM FEW070 BKN120
     FM230900 VRB02KT P6SM SKC
     FM232100 04005KT P6SM FEW080=



000
FTUS46 KOTX 222322
TAFCOE
TAF
KCOE 222322Z 2300/2324 04008KT P6SM VCTS SCT070CB SCT120
      TEMPO 2300/2302 VRB12G26KT
     FM230600 07009KT P6SM SKC
     FM232100 04014G18KT P6SM FEW080
      AMD LTD TO CLD AND VIS=



000
FTUS46 KOTX 222322
TAFPUW
TAF
KPUW 222322Z 2300/2324 03015KT 5SM TSRAGS BKN060CB BKN100
      TEMPO 2300/2301 VRB12G26KT
     FM230100 23008KT P6SM VCSH SCT060 BKN110
     FM230200 VRB03KT P6SM SCT100 SCT200
     FM230600 34006KT P6SM SKC
     FM232100 29010KT P6SM SCT080=



000
FTUS46 KOTX 222322
TAFGEG
TAF
KGEG 222322Z 2300/2324 03009G14KT 5SM TSRAGS BKN060CB BKN100
      TEMPO 2300/2302 VRB12G26KT
     FM230200 13006KT P6SM VCTS FEW070CB BKN120
     FM230900 10005KT P6SM SKC
     FM232100 06010KT P6SM FEW080=



000
FTUS46 KOTX 222322
TAFEAT
TAF
KEAT 222322Z 2300/2324 30010KT P6SM VCTS SCT080CB BKN120
      TEMPO 2300/2302 VRB12G26KT OVC060CB
     FM230300 30015G20KT P6SM VCSH SCT100 BKN200
     FM230600 31012KT P6SM BKN200=



000
FTUS46 KOTX 222322
TAFMWH
TAF
KMWH 222322Z 2300/2324 21007G16KT P6SM FEW120 SCT200
      TEMPO 2300/2302 VRB12G26KT P6SM -TSRA OVC060CB
     FM230200 24010KT P6SM VCTS SCT080CB BKN120
     FM230500 26008KT P6SM VCSH BKN100 BKN200
     FM231500 35005KT P6SM FEW100=



000
FTUS46 KOTX 222322
TAFPUW
TAF
KPUW 222322Z 2300/2324 03015KT 5SM TSRAGS BKN060CB BKN100
      TEMPO 2300/2301 VRB12G26KT
     FM230100 23008KT P6SM VCSH SCT060 BKN110
     FM230200 VRB03KT P6SM SCT100 SCT200
     FM230600 34006KT P6SM SKC
     FM232100 29010KT P6SM SCT080=



000
FTUS46 KOTX 222322
TAFEAT
TAF
KEAT 222322Z 2300/2324 30010KT P6SM VCTS SCT080CB BKN120
      TEMPO 2300/2302 VRB12G26KT OVC060CB
     FM230300 30015G20KT P6SM VCSH SCT100 BKN200
     FM230600 31012KT P6SM BKN200=



000
FTUS46 KOTX 222322
TAFMWH
TAF
KMWH 222322Z 2300/2324 21007G16KT P6SM FEW120 SCT200
      TEMPO 2300/2302 VRB12G26KT P6SM -TSRA OVC060CB
     FM230200 24010KT P6SM VCTS SCT080CB BKN120
     FM230500 26008KT P6SM VCSH BKN100 BKN200
     FM231500 35005KT P6SM FEW100=



000
FTUS46 KOTX 222322
TAFGEG
TAF
KGEG 222322Z 2300/2324 03009G14KT 5SM TSRAGS BKN060CB BKN100
      TEMPO 2300/2302 VRB12G26KT
     FM230200 13006KT P6SM VCTS FEW070CB BKN120
     FM230900 10005KT P6SM SKC
     FM232100 06010KT P6SM FEW080=



000
FTUS46 KOTX 222322
TAFLWS
TAF
KLWS 222322Z 2300/2324 02010KT 6SM TSRAGS BKN070CB BKN120
      TEMPO 2300/2301 VRB12G26KT
     FM230100 23005KT P6SM VCSH SCT070 BKN120
     FM230600 VRB03KT P6SM SCT100 SCT200
     FM232100 31008KT P6SM VCTS BKN080CB BKN120=



000
FTUS46 KOTX 222322
TAFSFF
TAF
KSFF 222322Z 2300/2324 02006KT P6SM VCTS SCT070CB BKN110
      TEMPO 2300/2302 VRB12G26KT
     FM230200 VRB04KT P6SM FEW070 BKN120
     FM230900 VRB02KT P6SM SKC
     FM232100 04005KT P6SM FEW080=



000
FTUS46 KOTX 222322
TAFCOE
TAF
KCOE 222322Z 2300/2324 04008KT P6SM VCTS SCT070CB SCT120
      TEMPO 2300/2302 VRB12G26KT
     FM230600 07009KT P6SM SKC
     FM232100 04014G18KT P6SM FEW080
      AMD LTD TO CLD AND VIS=



000
FTUS46 KOTX 222322
TAFLWS
TAF
KLWS 222322Z 2300/2324 02010KT 6SM TSRAGS BKN070CB BKN120
      TEMPO 2300/2301 VRB12G26KT
     FM230100 23005KT P6SM VCSH SCT070 BKN120
     FM230600 VRB03KT P6SM SCT100 SCT200
     FM232100 31008KT P6SM VCTS BKN080CB BKN120=



000
FTUS46 KOTX 222320
TAFGEG
TAF
KGEG 222320Z 2300/2324 25007KT 3SM TSRAGS BKN060CB BKN100
     FM230100 13006KT P6SM VCTS FEW070CB BKN120
     FM230900 10005KT P6SM SKC=



000
FTUS46 KOTX 222320
TAFGEG
TAF
KGEG 222320Z 2300/2324 25007KT 3SM TSRAGS BKN060CB BKN100
     FM230100 13006KT P6SM VCTS FEW070CB BKN120
     FM230900 10005KT P6SM SKC=



000
FTUS46 KOTX 222304 AAB
TAFPUW
TAF AMD
KPUW 222304Z 2223/2318 27014G21KT 2SM TSRAGS BKN060CB BKN100
     FM230100 23005KT P6SM VCSH SCT060 BKN110
     FM230200 VRB03KT P6SM SCT100 SCT200=



000
FTUS46 KOTX 222304 AAB
TAFPUW
TAF AMD
KPUW 222304Z 2223/2318 27014G21KT 2SM TSRAGS BKN060CB BKN100
     FM230100 23005KT P6SM VCSH SCT060 BKN110
     FM230200 VRB03KT P6SM SCT100 SCT200=



000
FTUS46 KOTX 222228 AAA
TAFLWS
TAF AMD
KLWS 222228Z 2222/2318 30007KT 6SM TSRAGS BKN070CB BKN120
     FM230100 23005KT P6SM VCSH SCT070 BKN120
     FM230600 VRB03KT P6SM SCT100 SCT200=



000
FTUS46 KOTX 222228 AAA
TAFLWS
TAF AMD
KLWS 222228Z 2222/2318 30007KT 6SM TSRAGS BKN070CB BKN120
     FM230100 23005KT P6SM VCSH SCT070 BKN120
     FM230600 VRB03KT P6SM SCT100 SCT200=



000
FTUS46 KOTX 222228 AAA
TAFLWS
TAF AMD
KLWS 222228Z 2222/2318 30007KT 6SM TSRAGS BKN070CB BKN120
     FM230100 23005KT P6SM VCSH SCT070 BKN120
     FM230600 VRB03KT P6SM SCT100 SCT200=



000
FTUS46 KOTX 222228 AAA
TAFLWS
TAF AMD
KLWS 222228Z 2222/2318 30007KT 6SM TSRAGS BKN070CB BKN120
     FM230100 23005KT P6SM VCSH SCT070 BKN120
     FM230600 VRB03KT P6SM SCT100 SCT200=



000
FTUS46 KOTX 222225 AAD
TAFGEG
TAF AMD
KGEG 222225Z 2222/2318 25005KT 3SM TSRAGS BKN060CB BKN100
     FM230100 13006KT P6SM VCTS FEW070CB BKN120
     FM230900 10005KT P6SM SKC=



000
FTUS46 KOTX 222225 AAD
TAFGEG
TAF AMD
KGEG 222225Z 2222/2318 25005KT 3SM TSRAGS BKN060CB BKN100
     FM230100 13006KT P6SM VCTS FEW070CB BKN120
     FM230900 10005KT P6SM SKC=



000
FTUS46 KOTX 222224 CCA
TAFGEG
TAF COR
KGEG 222224Z 2222/2318 25005KT 3SM TSRAGS BKN060CB BKN100
     FM230100 13006KT P6SM VCTS FEW070CB BKN120
     FM230900 10005KT P6SM SKC=



000
FTUS46 KOTX 222224 CCA
TAFGEG
TAF COR
KGEG 222224Z 2222/2318 25005KT 3SM TSRAGS BKN060CB BKN100
     FM230100 13006KT P6SM VCTS FEW070CB BKN120
     FM230900 10005KT P6SM SKC=



000
FTUS46 KOTX 222224 AAB
TAFGEG
TAF AMD
KGEG 222224Z 2222/2318 25005KT 2SM TSRAGS BKN060CB BKN100
     FM230100 13006KT P6SM VCTS FEW070CB BKN120
     FM230900 10005KT P6SM SKC=



000
FTUS46 KOTX 222224 AAC
TAFGEG
TAF AMD
KGEG 222224Z 2222/2318 25005KT 3SM TSRAGS BKN060CB BKN100
     FM230100 13006KT P6SM VCTS FEW070CB BKN120
     FM230900 10005KT P6SM SKC=



000
FTUS46 KOTX 222224 AAB
TAFGEG
TAF AMD
KGEG 222224Z 2222/2318 25005KT 2SM TSRAGS BKN060CB BKN100
     FM230100 13006KT P6SM VCTS FEW070CB BKN120
     FM230900 10005KT P6SM SKC=



000
FTUS46 KOTX 222224 AAB
TAFGEG
TAF AMD
KGEG 222224Z 2222/2318 25005KT 2SM TSRAGS BKN060CB BKN100
     FM230100 13006KT P6SM VCTS FEW070CB BKN120
     FM230900 10005KT P6SM SKC=



000
FTUS46 KOTX 222224 AAC
TAFGEG
TAF AMD
KGEG 222224Z 2222/2318 25005KT 3SM TSRAGS BKN060CB BKN100
     FM230100 13006KT P6SM VCTS FEW070CB BKN120
     FM230900 10005KT P6SM SKC=



000
FTUS46 KOTX 222224 AAC
TAFGEG
TAF AMD
KGEG 222224Z 2222/2318 25005KT 3SM TSRAGS BKN060CB BKN100
     FM230100 13006KT P6SM VCTS FEW070CB BKN120
     FM230900 10005KT P6SM SKC=



000
FTUS46 KOTX 222221 AAA
TAFPUW
TAF AMD
KPUW 222221Z 2222/2318 27007KT 2SM TSRAGS BKN060CB BKN100
     FM230100 23005KT P6SM VCSH SCT060 BKN110
     FM230200 VRB03KT P6SM SCT100 SCT200=



000
FTUS46 KOTX 222221 AAA
TAFPUW
TAF AMD
KPUW 222221Z 2222/2318 27007KT 2SM TSRAGS BKN060CB BKN100
     FM230100 23005KT P6SM VCSH SCT060 BKN110
     FM230200 VRB03KT P6SM SCT100 SCT200=



000
FTUS46 KOTX 222126 AAA
TAFGEG
TAF AMD
KGEG 222126Z 2221/2318 25005KT P6SM VCSH SCT060 BKN100
      TEMPO 2222/2301 VRB10G27KT P6SM -TSRA BKN060CB
     FM230100 13006KT P6SM VCTS FEW070CB BKN120
     FM230900 10005KT P6SM SKC=



000
FTUS46 KOTX 222126 AAA
TAFGEG
TAF AMD
KGEG 222126Z 2221/2318 25005KT P6SM VCSH SCT060 BKN100
      TEMPO 2222/2301 VRB10G27KT P6SM -TSRA BKN060CB
     FM230100 13006KT P6SM VCTS FEW070CB BKN120
     FM230900 10005KT P6SM SKC=



000
FTUS46 KOTX 222121 AAA
TAFSFF
TAF AMD
KSFF 222121Z 2221/2318 25009KT P6SM -SHRA BKN090
      TEMPO 2221/2224 VRB10G25KT P6SM -TSRA BKN060CB
     FM230000 02005KT P6SM VCTS SCT070CB SCT120
     FM230200 VRB04KT P6SM FEW070 BKN120
     FM230900 VRB02KT P6SM SKC=



000
FTUS46 KOTX 222121 AAA
TAFSFF
TAF AMD
KSFF 222121Z 2221/2318 25009KT P6SM -SHRA BKN090
      TEMPO 2221/2224 VRB10G25KT P6SM -TSRA BKN060CB
     FM230000 02005KT P6SM VCTS SCT070CB SCT120
     FM230200 VRB04KT P6SM FEW070 BKN120
     FM230900 VRB02KT P6SM SKC=



000
FTUS46 KOTX 221857 AAA
TAFCOE
TAF AMD
KCOE 221857Z 2219/2318 29005KT P6SM VCSH SCT090
      TEMPO 2219/2223 VRB10G23KT -TSRA BKN070CB
     FM222300 05006KT P6SM VCTS SCT070CB SCT120
     FM230600 07009KT P6SM SKC
      AMD LTD TO CLD AND VIS=



000
FTUS46 KOTX 221857 AAA
TAFCOE
TAF AMD
KCOE 221857Z 2219/2318 29005KT P6SM VCSH SCT090
      TEMPO 2219/2223 VRB10G23KT -TSRA BKN070CB
     FM222300 05006KT P6SM VCTS SCT070CB SCT120
     FM230600 07009KT P6SM SKC
      AMD LTD TO CLD AND VIS=



000
FTUS46 KOTX 221857 AAA
TAFCOE
TAF AMD
KCOE 221857Z 2219/2318 29005KT P6SM VCSH SCT090
      TEMPO 2219/2223 VRB10G23KT -TSRA BKN070CB
     FM222300 05006KT P6SM VCTS SCT070CB SCT120
     FM230600 07009KT P6SM SKC
      AMD LTD TO CLD AND VIS=



000
FTUS46 KOTX 221739
TAFSFF
TAF
KSFF 221739Z 2218/2318 03004KT P6SM SCT120
     FM222100 02005KT P6SM VCTS SCT070CB SCT120
     FM230200 VRB04KT P6SM FEW070 BKN120
     FM230900 VRB02KT P6SM SKC=



000
FTUS46 KOTX 221739
TAFPUW
TAF
KPUW 221739Z 2218/2318 VRB03KT P6SM SCT060
     FM222200 27007KT P6SM VCTS SCT060CB SCT110
     FM230300 23005KT P6SM VCSH SCT060 BKN110
     FM230600 VRB03KT P6SM SCT100 SCT200=



000
FTUS46 KOTX 221739
TAFCOE
TAF
KCOE 221739Z 2218/2318 VRB03KT P6SM SCT120 BKN200
     FM222300 05006KT P6SM VCTS SCT070CB SCT120
     FM230600 07009KT P6SM SKC
      AMD LTD TO CLD AND VIS=



000
FTUS46 KOTX 221739
TAFLWS
TAF
KLWS 221739Z 2218/2318 00000KT P6SM SCT090
     FM222200 30007KT P6SM VCTS SCT070CB BKN120
      TEMPO 2222/2302 VRB12G26KT OVC060CB
     FM230300 23005KT P6SM VCSH SCT070 BKN120
     FM230600 VRB03KT P6SM SCT100 SCT200=



000
FTUS46 KOTX 221739
TAFMWH
TAF
KMWH 221739Z 2218/2318 VRB05KT P6SM VCSH SCT090
     FM222100 21007KT P6SM FEW120 SCT200
      TEMPO 2222/2302 VRB12G26KT P6SM -TSRA OVC060CB
     FM230200 24010KT P6SM VCTS SCT080CB BKN120
     FM230500 26008KT P6SM VCSH BKN100 BKN200=



000
FTUS46 KOTX 221739
TAFCOE
TAF
KCOE 221739Z 2218/2318 VRB03KT P6SM SCT120 BKN200
     FM222300 05006KT P6SM VCTS SCT070CB SCT120
     FM230600 07009KT P6SM SKC
      AMD LTD TO CLD AND VIS=



000
FTUS46 KOTX 221739
TAFSFF
TAF
KSFF 221739Z 2218/2318 03004KT P6SM SCT120
     FM222100 02005KT P6SM VCTS SCT070CB SCT120
     FM230200 VRB04KT P6SM FEW070 BKN120
     FM230900 VRB02KT P6SM SKC=



000
FTUS46 KOTX 221739
TAFPUW
TAF
KPUW 221739Z 2218/2318 VRB03KT P6SM SCT060
     FM222200 27007KT P6SM VCTS SCT060CB SCT110
     FM230300 23005KT P6SM VCSH SCT060 BKN110
     FM230600 VRB03KT P6SM SCT100 SCT200=



000
FTUS46 KOTX 221739
TAFMWH
TAF
KMWH 221739Z 2218/2318 VRB05KT P6SM VCSH SCT090
     FM222100 21007KT P6SM FEW120 SCT200
      TEMPO 2222/2302 VRB12G26KT P6SM -TSRA OVC060CB
     FM230200 24010KT P6SM VCTS SCT080CB BKN120
     FM230500 26008KT P6SM VCSH BKN100 BKN200=



000
FTUS46 KOTX 221739
TAFLWS
TAF
KLWS 221739Z 2218/2318 00000KT P6SM SCT090
     FM222200 30007KT P6SM VCTS SCT070CB BKN120
      TEMPO 2222/2302 VRB12G26KT OVC060CB
     FM230300 23005KT P6SM VCSH SCT070 BKN120
     FM230600 VRB03KT P6SM SCT100 SCT200=



000
FTUS46 KOTX 221739
TAFGEG
TAF
KGEG 221739Z 2218/2318 18006KT P6SM SCT120
     FM222100 02007KT P6SM VCTS SCT070CB SCT120
     FM230200 VRB04KT P6SM FEW070 BKN120
     FM230900 10005KT P6SM SKC=



000
FTUS46 KOTX 221739
TAFGEG
TAF
KGEG 221739Z 2218/2318 18006KT P6SM SCT120
     FM222100 02007KT P6SM VCTS SCT070CB SCT120
     FM230200 VRB04KT P6SM FEW070 BKN120
     FM230900 10005KT P6SM SKC=



000
FTUS46 KOTX 221739
TAFSFF
TAF
KSFF 221739Z 2218/2318 03004KT P6SM SCT120
     FM222100 02005KT P6SM VCTS SCT070CB SCT120
     FM230200 VRB04KT P6SM FEW070 BKN120
     FM230900 VRB02KT P6SM SKC=



000
FTUS46 KOTX 221739
TAFCOE
TAF
KCOE 221739Z 2218/2318 VRB03KT P6SM SCT120 BKN200
     FM222300 05006KT P6SM VCTS SCT070CB SCT120
     FM230600 07009KT P6SM SKC
      AMD LTD TO CLD AND VIS=



000
FTUS46 KOTX 221739
TAFMWH
TAF
KMWH 221739Z 2218/2318 VRB05KT P6SM VCSH SCT090
     FM222100 21007KT P6SM FEW120 SCT200
      TEMPO 2222/2302 VRB12G26KT P6SM -TSRA OVC060CB
     FM230200 24010KT P6SM VCTS SCT080CB BKN120
     FM230500 26008KT P6SM VCSH BKN100 BKN200=



000
FTUS46 KOTX 221739
TAFLWS
TAF
KLWS 221739Z 2218/2318 00000KT P6SM SCT090
     FM222200 30007KT P6SM VCTS SCT070CB BKN120
      TEMPO 2222/2302 VRB12G26KT OVC060CB
     FM230300 23005KT P6SM VCSH SCT070 BKN120
     FM230600 VRB03KT P6SM SCT100 SCT200=



000
FTUS46 KOTX 221739
TAFCOE
TAF
KCOE 221739Z 2218/2318 VRB03KT P6SM SCT120 BKN200
     FM222300 05006KT P6SM VCTS SCT070CB SCT120
     FM230600 07009KT P6SM SKC
      AMD LTD TO CLD AND VIS=



000
FTUS46 KOTX 221739
TAFPUW
TAF
KPUW 221739Z 2218/2318 VRB03KT P6SM SCT060
     FM222200 27007KT P6SM VCTS SCT060CB SCT110
     FM230300 23005KT P6SM VCSH SCT060 BKN110
     FM230600 VRB03KT P6SM SCT100 SCT200=



000
FTUS46 KOTX 221739
TAFGEG
TAF
KGEG 221739Z 2218/2318 18006KT P6SM SCT120
     FM222100 02007KT P6SM VCTS SCT070CB SCT120
     FM230200 VRB04KT P6SM FEW070 BKN120
     FM230900 10005KT P6SM SKC=



000
FTUS46 KOTX 221739
TAFSFF
TAF
KSFF 221739Z 2218/2318 03004KT P6SM SCT120
     FM222100 02005KT P6SM VCTS SCT070CB SCT120
     FM230200 VRB04KT P6SM FEW070 BKN120
     FM230900 VRB02KT P6SM SKC=



000
FTUS46 KOTX 221739
TAFEAT
TAF
KEAT 221739Z 2218/2318 30011KT P6SM -SHRA BKN080
     FM222000 30010KT P6SM VCTS SCT080CB BKN120
      TEMPO 2222/2302 VRB12G26KT OVC060CB
     FM230300 30015G20KT P6SM VCSH SCT100 BKN200
     FM230600 31012KT P6SM BKN200=



000
FTUS46 KOTX 221739
TAFEAT
TAF
KEAT 221739Z 2218/2318 30011KT P6SM -SHRA BKN080
     FM222000 30010KT P6SM VCTS SCT080CB BKN120
      TEMPO 2222/2302 VRB12G26KT OVC060CB
     FM230300 30015G20KT P6SM VCSH SCT100 BKN200
     FM230600 31012KT P6SM BKN200=



000
FTUS46 KOTX 221739
TAFEAT
TAF
KEAT 221739Z 2218/2318 30011KT P6SM -SHRA BKN080
     FM222000 30010KT P6SM VCTS SCT080CB BKN120
      TEMPO 2222/2302 VRB12G26KT OVC060CB
     FM230300 30015G20KT P6SM VCSH SCT100 BKN200
     FM230600 31012KT P6SM BKN200=



000
FTUS46 KOTX 221426 AAA
TAFEAT
TAF AMD
KEAT 221426Z 2214/2312 30011KT P6SM -SHRA BKN070 OVC110
     FM221800 30010KT P6SM VCTS SCT080CB BKN120
     FM230300 30015G20KT P6SM VCSH SCT100 BKN200
     FM230600 31012KT P6SM BKN200=



000
FTUS46 KOTX 221426 AAA
TAFEAT
TAF AMD
KEAT 221426Z 2214/2312 30011KT P6SM -SHRA BKN070 OVC110
     FM221800 30010KT P6SM VCTS SCT080CB BKN120
     FM230300 30015G20KT P6SM VCSH SCT100 BKN200
     FM230600 31012KT P6SM BKN200=



000
FTUS46 KOTX 221127
TAFGEG
TAF
KGEG 221127Z 2212/2312 14004KT P6SM SCT120 BKN200
     FM221900 02007KT P6SM SCT070 SCT120
     FM230200 VRB04KT P6SM FEW070 BKN120
     FM230900 10005KT P6SM SKC=



000
FTUS46 KOTX 221127
TAFSFF
TAF
KSFF 221127Z 2212/2312 03004KT P6SM SCT120 BKN200
     FM221900 02005KT P6SM SCT070 SCT120
     FM230200 VRB04KT P6SM FEW070 BKN120
     FM230900 VRB02KT P6SM SKC=



000
FTUS46 KOTX 221127
TAFCOE
TAF
KCOE 221127Z 2212/2312 13006KT P6SM SCT120 BKN200
     FM221900 05006KT P6SM SCT070 SCT120
     FM230600 07009KT P6SM SKC
      AMD LTD TO CLD AND VIS=



000
FTUS46 KOTX 221127
TAFPUW
TAF
KPUW 221127Z 2212/2312 00000KT P6SM SCT120 BKN200
     FM221400 24005KT P6SM FEW030 SCT060 BKN150
     FM222200 27007KT P6SM VCTS SCT060CB BKN100
     FM230300 23005KT P6SM VCSH SCT060 BKN110
     FM230600 VRB03KT P6SM SCT100 SCT200=



000
FTUS46 KOTX 221127
TAFLWS
TAF
KLWS 221127Z 2212/2312 00000KT P6SM VCSH SCT100 BKN200
     FM222000 30007KT P6SM VCTS SCT070CB BKN100
     FM230300 23005KT P6SM VCSH SCT070 BKN120
     FM230600 VRB03KT P6SM SCT100 SCT200=



000
FTUS46 KOTX 221127
TAFEAT
TAF
KEAT 221127Z 2212/2312 25005KT P6SM VCSH BKN110 BKN200
     FM222000 30010KT P6SM VCTS SCT080CB BKN120
     FM230300 30015G20KT P6SM VCSH SCT100 BKN200
     FM230600 31012KT P6SM BKN200=



000
FTUS46 KOTX 221127
TAFEAT
TAF
KEAT 221127Z 2212/2312 25005KT P6SM VCSH BKN110 BKN200
     FM222000 30010KT P6SM VCTS SCT080CB BKN120
     FM230300 30015G20KT P6SM VCSH SCT100 BKN200
     FM230600 31012KT P6SM BKN200=



000
FTUS46 KOTX 221127
TAFLWS
TAF
KLWS 221127Z 2212/2312 00000KT P6SM VCSH SCT100 BKN200
     FM222000 30007KT P6SM VCTS SCT070CB BKN100
     FM230300 23005KT P6SM VCSH SCT070 BKN120
     FM230600 VRB03KT P6SM SCT100 SCT200=



000
FTUS46 KOTX 221127
TAFMWH
TAF
KMWH 221127Z 2212/2312 VRB06KT P6SM VCSH BKN110 BKN200
     FM221800 21007KT P6SM FEW120 SCT200
     FM230100 24010KT P6SM VCTS SCT080CB BKN120
     FM230500 26008KT P6SM VCSH BKN100 BKN200=



000
FTUS46 KOTX 221127
TAFMWH
TAF
KMWH 221127Z 2212/2312 VRB06KT P6SM VCSH BKN110 BKN200
     FM221800 21007KT P6SM FEW120 SCT200
     FM230100 24010KT P6SM VCTS SCT080CB BKN120
     FM230500 26008KT P6SM VCSH BKN100 BKN200=



000
FTUS46 KOTX 221127
TAFMWH
TAF
KMWH 221127Z 2212/2312 VRB06KT P6SM VCSH BKN110 BKN200
     FM221800 21007KT P6SM FEW120 SCT200
     FM230100 24010KT P6SM VCTS SCT080CB BKN120
     FM230500 26008KT P6SM VCSH BKN100 BKN200=



000
FTUS46 KOTX 221127
TAFMWH
TAF
KMWH 221127Z 2212/2312 VRB06KT P6SM VCSH BKN110 BKN200
     FM221800 21007KT P6SM FEW120 SCT200
     FM230100 24010KT P6SM VCTS SCT080CB BKN120
     FM230500 26008KT P6SM VCSH BKN100 BKN200=



000
FTUS46 KOTX 221127
TAFSFF
TAF
KSFF 221127Z 2212/2312 03004KT P6SM SCT120 BKN200
     FM221900 02005KT P6SM SCT070 SCT120
     FM230200 VRB04KT P6SM FEW070 BKN120
     FM230900 VRB02KT P6SM SKC=



000
FTUS46 KOTX 221127
TAFSFF
TAF
KSFF 221127Z 2212/2312 03004KT P6SM SCT120 BKN200
     FM221900 02005KT P6SM SCT070 SCT120
     FM230200 VRB04KT P6SM FEW070 BKN120
     FM230900 VRB02KT P6SM SKC=



000
FTUS46 KOTX 221127
TAFPUW
TAF
KPUW 221127Z 2212/2312 00000KT P6SM SCT120 BKN200
     FM221400 24005KT P6SM FEW030 SCT060 BKN150
     FM222200 27007KT P6SM VCTS SCT060CB BKN100
     FM230300 23005KT P6SM VCSH SCT060 BKN110
     FM230600 VRB03KT P6SM SCT100 SCT200=



000
FTUS46 KOTX 221127
TAFEAT
TAF
KEAT 221127Z 2212/2312 25005KT P6SM VCSH BKN110 BKN200
     FM222000 30010KT P6SM VCTS SCT080CB BKN120
     FM230300 30015G20KT P6SM VCSH SCT100 BKN200
     FM230600 31012KT P6SM BKN200=



000
FTUS46 KOTX 221127
TAFEAT
TAF
KEAT 221127Z 2212/2312 25005KT P6SM VCSH BKN110 BKN200
     FM222000 30010KT P6SM VCTS SCT080CB BKN120
     FM230300 30015G20KT P6SM VCSH SCT100 BKN200
     FM230600 31012KT P6SM BKN200=



000
FTUS46 KOTX 221127
TAFGEG
TAF
KGEG 221127Z 2212/2312 14004KT P6SM SCT120 BKN200
     FM221900 02007KT P6SM SCT070 SCT120
     FM230200 VRB04KT P6SM FEW070 BKN120
     FM230900 10005KT P6SM SKC=



000
FTUS46 KOTX 221127
TAFLWS
TAF
KLWS 221127Z 2212/2312 00000KT P6SM VCSH SCT100 BKN200
     FM222000 30007KT P6SM VCTS SCT070CB BKN100
     FM230300 23005KT P6SM VCSH SCT070 BKN120
     FM230600 VRB03KT P6SM SCT100 SCT200=



000
FTUS46 KOTX 221127
TAFCOE
TAF
KCOE 221127Z 2212/2312 13006KT P6SM SCT120 BKN200
     FM221900 05006KT P6SM SCT070 SCT120
     FM230600 07009KT P6SM SKC
      AMD LTD TO CLD AND VIS=



000
FTUS46 KOTX 221127
TAFLWS
TAF
KLWS 221127Z 2212/2312 00000KT P6SM VCSH SCT100 BKN200
     FM222000 30007KT P6SM VCTS SCT070CB BKN100
     FM230300 23005KT P6SM VCSH SCT070 BKN120
     FM230600 VRB03KT P6SM SCT100 SCT200=



000
FTUS46 KOTX 220531
TAFEAT
TAF
KEAT 220531Z 2206/2306 29008KT P6SM VCSH SCT100 BKN150
     FM222100 30010KT P6SM VCTS SCT080CB BKN120
     FM230300 30015G20KT P6SM SCT100 BKN200=



000
FTUS46 KOTX 220531
TAFSFF
TAF
KSFF 220531Z 2206/2306 04003KT P6SM FEW080 SCT120
     FM221200 05002KT P6SM SCT020 SCT200
     FM221900 02005KT P6SM SCT070
     FM230200 VRB04KT P6SM FEW070 BKN120=



000
FTUS46 KOTX 220531
TAFPUW
TAF
KPUW 220531Z 2206/2306 VRB03KT P6SM VCSH SCT070 BKN100
     FM221400 24005KT P6SM FEW030 SCT060 BKN150
     FM222200 27007KT P6SM -SHRA VCTS SCT060CB BKN100
     FM230300 23005KT P6SM VCSH SCT060 BKN110=



000
FTUS46 KOTX 220531
TAFSFF
TAF
KSFF 220531Z 2206/2306 04003KT P6SM FEW080 SCT120
     FM221200 05002KT P6SM SCT020 SCT200
     FM221900 02005KT P6SM SCT070
     FM230200 VRB04KT P6SM FEW070 BKN120=



000
FTUS46 KOTX 220531
TAFCOE
TAF
KCOE 220531Z 2206/2306 04007KT P6SM FEW080 SCT120
     FM221200 06008KT P6SM FEW050 SCT100
      AMD LTD TO CLD AND VIS=



000
FTUS46 KOTX 220531
TAFMWH
TAF
KMWH 220531Z 2206/2306 VRB04KT P6SM VCSH SCT100 BKN150
     FM221200 34004KT P6SM SCT100 BKN150
     FM221800 21007KT P6SM FEW120 SCT200
     FM230200 24008KT P6SM -SHRA VCTS SCT080CB BKN120=



000
FTUS46 KOTX 220531
TAFLWS
TAF
KLWS 220531Z 2206/2306 14004KT P6SM VCSH SCT100 BKN150
     FM222000 30007KT P6SM -SHRA VCTS SCT070CB BKN100
     FM230300 23005KT P6SM VCSH SCT070 BKN120=



000
FTUS46 KOTX 220531
TAFPUW
TAF
KPUW 220531Z 2206/2306 VRB03KT P6SM VCSH SCT070 BKN100
     FM221400 24005KT P6SM FEW030 SCT060 BKN150
     FM222200 27007KT P6SM -SHRA VCTS SCT060CB BKN100
     FM230300 23005KT P6SM VCSH SCT060 BKN110=



000
FTUS46 KOTX 220531
TAFCOE
TAF
KCOE 220531Z 2206/2306 04007KT P6SM FEW080 SCT120
     FM221200 06008KT P6SM FEW050 SCT100
      AMD LTD TO CLD AND VIS=



000
FTUS46 KOTX 220531
TAFEAT
TAF
KEAT 220531Z 2206/2306 29008KT P6SM VCSH SCT100 BKN150
     FM222100 30010KT P6SM VCTS SCT080CB BKN120
     FM230300 30015G20KT P6SM SCT100 BKN200=



000
FTUS46 KOTX 220531
TAFMWH
TAF
KMWH 220531Z 2206/2306 VRB04KT P6SM VCSH SCT100 BKN150
     FM221200 34004KT P6SM SCT100 BKN150
     FM221800 21007KT P6SM FEW120 SCT200
     FM230200 24008KT P6SM -SHRA VCTS SCT080CB BKN120=



000
FTUS46 KOTX 220531
TAFGEG
TAF
KGEG 220531Z 2206/2306 19006KT P6SM FEW080 SCT120
     FM221200 10005KT P6SM SCT015
     FM221900 02007KT P6SM SCT070
     FM230200 VRB04KT P6SM FEW070 BKN120=



000
FTUS46 KOTX 220531
TAFLWS
TAF
KLWS 220531Z 2206/2306 14004KT P6SM VCSH SCT100 BKN150
     FM222000 30007KT P6SM -SHRA VCTS SCT070CB BKN100
     FM230300 23005KT P6SM VCSH SCT070 BKN120=



000
FTUS46 KOTX 220531
TAFSFF
TAF
KSFF 220531Z 2206/2306 04003KT P6SM FEW080 SCT120
     FM221200 05002KT P6SM SCT020 SCT200
     FM221900 02005KT P6SM SCT070
     FM230200 VRB04KT P6SM FEW070 BKN120=



000
FTUS46 KOTX 220531
TAFEAT
TAF
KEAT 220531Z 2206/2306 29008KT P6SM VCSH SCT100 BKN150
     FM222100 30010KT P6SM VCTS SCT080CB BKN120
     FM230300 30015G20KT P6SM SCT100 BKN200=



000
FTUS46 KOTX 220531
TAFLWS
TAF
KLWS 220531Z 2206/2306 14004KT P6SM VCSH SCT100 BKN150
     FM222000 30007KT P6SM -SHRA VCTS SCT070CB BKN100
     FM230300 23005KT P6SM VCSH SCT070 BKN120=



000
FTUS46 KOTX 220531
TAFCOE
TAF
KCOE 220531Z 2206/2306 04007KT P6SM FEW080 SCT120
     FM221200 06008KT P6SM FEW050 SCT100
      AMD LTD TO CLD AND VIS=



000
FTUS46 KOTX 220531
TAFGEG
TAF
KGEG 220531Z 2206/2306 19006KT P6SM FEW080 SCT120
     FM221200 10005KT P6SM SCT015
     FM221900 02007KT P6SM SCT070
     FM230200 VRB04KT P6SM FEW070 BKN120=



000
FTUS46 KOTX 220531
TAFPUW
TAF
KPUW 220531Z 2206/2306 VRB03KT P6SM VCSH SCT070 BKN100
     FM221400 24005KT P6SM FEW030 SCT060 BKN150
     FM222200 27007KT P6SM -SHRA VCTS SCT060CB BKN100
     FM230300 23005KT P6SM VCSH SCT060 BKN110=



000
FTUS46 KOTX 220531
TAFSFF
TAF
KSFF 220531Z 2206/2306 04003KT P6SM FEW080 SCT120
     FM221200 05002KT P6SM SCT020 SCT200
     FM221900 02005KT P6SM SCT070
     FM230200 VRB04KT P6SM FEW070 BKN120=



000
FTUS46 KOTX 220531
TAFEAT
TAF
KEAT 220531Z 2206/2306 29008KT P6SM VCSH SCT100 BKN150
     FM222100 30010KT P6SM VCTS SCT080CB BKN120
     FM230300 30015G20KT P6SM SCT100 BKN200=



000
FTUS46 KOTX 220531
TAFCOE
TAF
KCOE 220531Z 2206/2306 04007KT P6SM FEW080 SCT120
     FM221200 06008KT P6SM FEW050 SCT100
      AMD LTD TO CLD AND VIS=



000
FTUS46 KOTX 220531
TAFLWS
TAF
KLWS 220531Z 2206/2306 14004KT P6SM VCSH SCT100 BKN150
     FM222000 30007KT P6SM -SHRA VCTS SCT070CB BKN100
     FM230300 23005KT P6SM VCSH SCT070 BKN120=



000
FTUS46 KOTX 220531
TAFMWH
TAF
KMWH 220531Z 2206/2306 VRB04KT P6SM VCSH SCT100 BKN150
     FM221200 34004KT P6SM SCT100 BKN150
     FM221800 21007KT P6SM FEW120 SCT200
     FM230200 24008KT P6SM -SHRA VCTS SCT080CB BKN120=



000
FTUS46 KOTX 220531
TAFPUW
TAF
KPUW 220531Z 2206/2306 VRB03KT P6SM VCSH SCT070 BKN100
     FM221400 24005KT P6SM FEW030 SCT060 BKN150
     FM222200 27007KT P6SM -SHRA VCTS SCT060CB BKN100
     FM230300 23005KT P6SM VCSH SCT060 BKN110=



000
FTUS46 KOTX 220201 AAC
TAFEAT
TAF AMD
KEAT 220201Z 2202/2224 VRB15G30KT P6SM -TSRA OVC090CB
     FM220300 29008KT P6SM SCT100 BKN150=



000
FTUS46 KOTX 220201 AAC
TAFEAT
TAF AMD
KEAT 220201Z 2202/2224 VRB15G30KT P6SM -TSRA OVC090CB
     FM220300 29008KT P6SM SCT100 BKN150=



000
FTUS46 KOTX 220132 AAA
TAFSFF
TAF AMD
KSFF 220132Z 2202/2224 04003KT P6SM FEW080 SCT120
      TEMPO 2202/2203 VRB06G15KT -SHRA
     FM221200 05002KT P6SM FEW020 SCT200
     FM221900 02005KT P6SM SCT070=



000
FTUS46 KOTX 220132 AAA
TAFSFF
TAF AMD
KSFF 220132Z 2202/2224 04003KT P6SM FEW080 SCT120
      TEMPO 2202/2203 VRB06G15KT -SHRA
     FM221200 05002KT P6SM FEW020 SCT200
     FM221900 02005KT P6SM SCT070=



000
FTUS46 KOTX 220122 AAB
TAFEAT
TAF AMD
KEAT 220122Z 2201/2224 31011KT P6SM VCTS SCT090CB BKN200
      TEMPO 2201/2203 09008G15KT -TSRA BKN080CB
     FM220300 29008KT P6SM SCT100 BKN150=



000
FTUS46 KOTX 220122 AAB
TAFEAT
TAF AMD
KEAT 220122Z 2201/2224 31011KT P6SM VCTS SCT090CB BKN200
      TEMPO 2201/2203 09008G15KT -TSRA BKN080CB
     FM220300 29008KT P6SM SCT100 BKN150=



000
FTUS46 KOTX 220109 AAA
TAFLWS
TAF AMD
KLWS 220109Z 2201/2224 22005KT P6SM VCSH SCT080 BKN120
     FM220500 14004KT P6SM VCSH SCT100 BKN150
     FM222000 30007KT P6SM VCTS SCT070CB BKN100=



000
FTUS46 KOTX 220109 AAA
TAFLWS
TAF AMD
KLWS 220109Z 2201/2224 22005KT P6SM VCSH SCT080 BKN120
     FM220500 14004KT P6SM VCSH SCT100 BKN150
     FM222000 30007KT P6SM VCTS SCT070CB BKN100=



000
FTUS46 KOTX 220100 AAA
TAFEAT
TAF AMD
KEAT 220100Z 2201/2224 31011KT P6SM VCTS SCT090CB BKN200
     FM220300 29008KT P6SM SCT100 BKN150=



000
FTUS46 KOTX 220100 AAA
TAFEAT
TAF AMD
KEAT 220100Z 2201/2224 31011KT P6SM VCTS SCT090CB BKN200
     FM220300 29008KT P6SM SCT100 BKN150=



000
FTUS46 KOTX 220100 AAA
TAFEAT
TAF AMD
KEAT 220100Z 2201/2224 31011KT P6SM VCTS SCT090CB BKN200
     FM220300 29008KT P6SM SCT100 BKN150=



000
FTUS46 KOTX 212329
TAFCOE
TAF
KCOE 212329Z 2200/2224 04007KT P6SM FEW080 SCT120
     FM221200 06008KT P6SM FEW050 SCT100
      AMD LTD TO CLD AND VIS=



000
FTUS46 KOTX 212329
TAFGEG
TAF
KGEG 212329Z 2200/2224 VRB04KT P6SM FEW080 SCT120
     FM221200 10005KT P6SM FEW015 SCT200
     FM221900 02007KT P6SM SCT070=



000
FTUS46 KOTX 212329
TAFSFF
TAF
KSFF 212329Z 2200/2224 04003KT P6SM FEW080 SCT120
     FM221200 05002KT P6SM FEW020 SCT200
     FM221900 02005KT P6SM SCT070=



000
FTUS46 KOTX 212329
TAFLWS
TAF
KLWS 212329Z 2200/2224 20005KT P6SM VCSH BKN110
     FM220100 22005KT P6SM VCTS SCT080CB BKN120
     FM220500 14004KT P6SM VCSH SCT100 BKN150
     FM222000 30007KT P6SM VCTS SCT070CB BKN100=



000
FTUS46 KOTX 212329
TAFPUW
TAF
KPUW 212329Z 2200/2224 VRB06G12KT P6SM -SHRA VCTS SCT060CB BKN100
     FM220100 VRB06KT P6SM VCSH BKN060 OVC110
     FM220400 VRB03KT P6SM SCT070 BKN100
     FM221400 24005KT P6SM FEW030 SCT060 BKN150
     FM222200 27007KT P6SM VCTS SCT060CB BKN100=



000
FTUS46 KOTX 212329
TAFCOE
TAF
KCOE 212329Z 2200/2224 04007KT P6SM FEW080 SCT120
     FM221200 06008KT P6SM FEW050 SCT100
      AMD LTD TO CLD AND VIS=



000
FTUS46 KOTX 212329
TAFLWS
TAF
KLWS 212329Z 2200/2224 20005KT P6SM VCSH BKN110
     FM220100 22005KT P6SM VCTS SCT080CB BKN120
     FM220500 14004KT P6SM VCSH SCT100 BKN150
     FM222000 30007KT P6SM VCTS SCT070CB BKN100=



000
FTUS46 KOTX 212329
TAFGEG
TAF
KGEG 212329Z 2200/2224 VRB04KT P6SM FEW080 SCT120
     FM221200 10005KT P6SM FEW015 SCT200
     FM221900 02007KT P6SM SCT070=



000
FTUS46 KOTX 212329
TAFPUW
TAF
KPUW 212329Z 2200/2224 VRB06G12KT P6SM -SHRA VCTS SCT060CB BKN100
     FM220100 VRB06KT P6SM VCSH BKN060 OVC110
     FM220400 VRB03KT P6SM SCT070 BKN100
     FM221400 24005KT P6SM FEW030 SCT060 BKN150
     FM222200 27007KT P6SM VCTS SCT060CB BKN100=



000
FTUS46 KOTX 212329
TAFMWH
TAF
KMWH 212329Z 2200/2224 15007KT P6SM VCSH SCT080 BKN200
     FM220500 VRB04KT P6SM SCT100 BKN150
     FM221200 34004KT P6SM SCT100 BKN150
     FM221800 21007KT P6SM FEW120 SCT200=



000
FTUS46 KOTX 212329
TAFPUW
TAF
KPUW 212329Z 2200/2224 VRB06G12KT P6SM -SHRA VCTS SCT060CB BKN100
     FM220100 VRB06KT P6SM VCSH BKN060 OVC110
     FM220400 VRB03KT P6SM SCT070 BKN100
     FM221400 24005KT P6SM FEW030 SCT060 BKN150
     FM222200 27007KT P6SM VCTS SCT060CB BKN100=



000
FTUS46 KOTX 212329
TAFEAT
TAF
KEAT 212329Z 2200/2224 12005KT P6SM VCSH SCT090 BKN200
     FM220300 29008KT P6SM SCT100 BKN150=



000
FTUS46 KOTX 212329
TAFGEG
TAF
KGEG 212329Z 2200/2224 VRB04KT P6SM FEW080 SCT120
     FM221200 10005KT P6SM FEW015 SCT200
     FM221900 02007KT P6SM SCT070=



000
FTUS46 KOTX 212329
TAFPUW
TAF
KPUW 212329Z 2200/2224 VRB06G12KT P6SM -SHRA VCTS SCT060CB BKN100
     FM220100 VRB06KT P6SM VCSH BKN060 OVC110
     FM220400 VRB03KT P6SM SCT070 BKN100
     FM221400 24005KT P6SM FEW030 SCT060 BKN150
     FM222200 27007KT P6SM VCTS SCT060CB BKN100=



000
FTUS46 KOTX 212329
TAFSFF
TAF
KSFF 212329Z 2200/2224 04003KT P6SM FEW080 SCT120
     FM221200 05002KT P6SM FEW020 SCT200
     FM221900 02005KT P6SM SCT070=



000
FTUS46 KOTX 212329
TAFLWS
TAF
KLWS 212329Z 2200/2224 20005KT P6SM VCSH BKN110
     FM220100 22005KT P6SM VCTS SCT080CB BKN120
     FM220500 14004KT P6SM VCSH SCT100 BKN150
     FM222000 30007KT P6SM VCTS SCT070CB BKN100=



000
FTUS46 KOTX 212329
TAFCOE
TAF
KCOE 212329Z 2200/2224 04007KT P6SM FEW080 SCT120
     FM221200 06008KT P6SM FEW050 SCT100
      AMD LTD TO CLD AND VIS=



000
FTUS46 KOTX 212329
TAFEAT
TAF
KEAT 212329Z 2200/2224 12005KT P6SM VCSH SCT090 BKN200
     FM220300 29008KT P6SM SCT100 BKN150=



000
FTUS46 KOTX 212329
TAFSFF
TAF
KSFF 212329Z 2200/2224 04003KT P6SM FEW080 SCT120
     FM221200 05002KT P6SM FEW020 SCT200
     FM221900 02005KT P6SM SCT070=



000
FTUS46 KOTX 212329
TAFGEG
TAF
KGEG 212329Z 2200/2224 VRB04KT P6SM FEW080 SCT120
     FM221200 10005KT P6SM FEW015 SCT200
     FM221900 02007KT P6SM SCT070=



000
FTUS46 KOTX 212329
TAFMWH
TAF
KMWH 212329Z 2200/2224 15007KT P6SM VCSH SCT080 BKN200
     FM220500 VRB04KT P6SM SCT100 BKN150
     FM221200 34004KT P6SM SCT100 BKN150
     FM221800 21007KT P6SM FEW120 SCT200=



000
FTUS46 KOTX 212329
TAFEAT
TAF
KEAT 212329Z 2200/2224 12005KT P6SM VCSH SCT090 BKN200
     FM220300 29008KT P6SM SCT100 BKN150=



000
FTUS46 KOTX 212329
TAFCOE
TAF
KCOE 212329Z 2200/2224 04007KT P6SM FEW080 SCT120
     FM221200 06008KT P6SM FEW050 SCT100
      AMD LTD TO CLD AND VIS=



000
FTUS46 KOTX 212329
TAFLWS
TAF
KLWS 212329Z 2200/2224 20005KT P6SM VCSH BKN110
     FM220100 22005KT P6SM VCTS SCT080CB BKN120
     FM220500 14004KT P6SM VCSH SCT100 BKN150
     FM222000 30007KT P6SM VCTS SCT070CB BKN100=



000
FTUS46 KOTX 212329
TAFSFF
TAF
KSFF 212329Z 2200/2224 04003KT P6SM FEW080 SCT120
     FM221200 05002KT P6SM FEW020 SCT200
     FM221900 02005KT P6SM SCT070=



000
FTUS46 KOTX 212329
TAFMWH
TAF
KMWH 212329Z 2200/2224 15007KT P6SM VCSH SCT080 BKN200
     FM220500 VRB04KT P6SM SCT100 BKN150
     FM221200 34004KT P6SM SCT100 BKN150
     FM221800 21007KT P6SM FEW120 SCT200=



000
FTUS46 KOTX 212329
TAFMWH
TAF
KMWH 212329Z 2200/2224 15007KT P6SM VCSH SCT080 BKN200
     FM220500 VRB04KT P6SM SCT100 BKN150
     FM221200 34004KT P6SM SCT100 BKN150
     FM221800 21007KT P6SM FEW120 SCT200=



000
FTUS46 KOTX 212329
TAFEAT
TAF
KEAT 212329Z 2200/2224 12005KT P6SM VCSH SCT090 BKN200
     FM220300 29008KT P6SM SCT100 BKN150=



000
FTUS46 KOTX 212254 AAB
TAFLWS
TAF AMD
KLWS 212254Z 2123/2218 20005KT P6SM VCSH BKN110
     FM220100 22005KT P6SM VCTS SCT080CB BKN120
     FM220500 14004KT P6SM SCT100 BKN150=



000
FTUS46 KOTX 212254 AAB
TAFLWS
TAF AMD
KLWS 212254Z 2123/2218 20005KT P6SM VCSH BKN110
     FM220100 22005KT P6SM VCTS SCT080CB BKN120
     FM220500 14004KT P6SM SCT100 BKN150=



000
FTUS46 KOTX 212254 AAB
TAFLWS
TAF AMD
KLWS 212254Z 2123/2218 20005KT P6SM VCSH BKN110
     FM220100 22005KT P6SM VCTS SCT080CB BKN120
     FM220500 14004KT P6SM SCT100 BKN150=



000
FTUS46 KOTX 212158 AAA
TAFPUW
TAF AMD
KPUW 212158Z 2122/2218 10012G22KT P6SM -TSRA BKN070CB OVC130
      TEMPO 2122/2201 08019G30KT 4SM -TSRA OVC060CB
     FM220200 VRB03KT P6SM VCTS BKN070CB BKN200
     FM221400 24005KT P6SM SCT100 BKN150=



000
FTUS46 KOTX 212158 AAA
TAFPUW
TAF AMD
KPUW 212158Z 2122/2218 10012G22KT P6SM -TSRA BKN070CB OVC130
      TEMPO 2122/2201 08019G30KT 4SM -TSRA OVC060CB
     FM220200 VRB03KT P6SM VCTS BKN070CB BKN200
     FM221400 24005KT P6SM SCT100 BKN150=



000
FTUS46 KOTX 212158 AAA
TAFPUW
TAF AMD
KPUW 212158Z 2122/2218 10012G22KT P6SM -TSRA BKN070CB OVC130
      TEMPO 2122/2201 08019G30KT 4SM -TSRA OVC060CB
     FM220200 VRB03KT P6SM VCTS BKN070CB BKN200
     FM221400 24005KT P6SM SCT100 BKN150=



000
FTUS46 KOTX 212158 AAA
TAFPUW
TAF AMD
KPUW 212158Z 2122/2218 10012G22KT P6SM -TSRA BKN070CB OVC130
      TEMPO 2122/2201 08019G30KT 4SM -TSRA OVC060CB
     FM220200 VRB03KT P6SM VCTS BKN070CB BKN200
     FM221400 24005KT P6SM SCT100 BKN150=



000
FTUS46 KOTX 211946 AAA
TAFLWS
TAF AMD
KLWS 211946Z 2120/2218 10009KT P6SM -TSRA BKN070CB
      TEMPO 2120/2123 14018G30KT P6SM OVC050CB
     FM220100 22005KT P6SM BKN100 BKN150=



000
FTUS46 KOTX 211946 AAA
TAFLWS
TAF AMD
KLWS 211946Z 2120/2218 10009KT P6SM -TSRA BKN070CB
      TEMPO 2120/2123 14018G30KT P6SM OVC050CB
     FM220100 22005KT P6SM BKN100 BKN150=



000
FTUS46 KOTX 211737
TAFEAT
TAF
KEAT 211737Z 2118/2218 27006KT P6SM FEW090 BKN120
     FM212200 12005KT P6SM VCSH SCT070 BKN200
     FM220600 31008KT P6SM SCT100 BKN150
     FM221200 31010KT P6SM SCT050 BKN100=



000
FTUS46 KOTX 211737
TAFEAT
TAF
KEAT 211737Z 2118/2218 27006KT P6SM FEW090 BKN120
     FM212200 12005KT P6SM VCSH SCT070 BKN200
     FM220600 31008KT P6SM SCT100 BKN150
     FM221200 31010KT P6SM SCT050 BKN100=



000
FTUS46 KOTX 211737
TAFCOE
TAF
KCOE 211737Z 2118/2218 04007KT P6SM FEW080 SCT120
     FM221200 08008KT P6SM FEW050 SCT100
      AMD LTD TO CLD AND VIS=



000
FTUS46 KOTX 211737
TAFCOE
TAF
KCOE 211737Z 2118/2218 04007KT P6SM FEW080 SCT120
     FM221200 08008KT P6SM FEW050 SCT100
      AMD LTD TO CLD AND VIS=



000
FTUS46 KOTX 211737
TAFSFF
TAF
KSFF 211737Z 2118/2218 07005KT P6SM FEW080 SCT120
     FM221200 05002KT P6SM FEW050 SCT100=



000
FTUS46 KOTX 211737
TAFSFF
TAF
KSFF 211737Z 2118/2218 07005KT P6SM FEW080 SCT120
     FM221200 05002KT P6SM FEW050 SCT100=



000
FTUS46 KOTX 211737
TAFPUW
TAF
KPUW 211737Z 2118/2218 13005KT P6SM SCT200
     FM212000 04005KT P6SM VCTS SCT060CB BKN150
     FM220200 VRB03KT P6SM BKN070 BKN200
     FM221400 24005KT P6SM SCT100 BKN150=



000
FTUS46 KOTX 211737
TAFPUW
TAF
KPUW 211737Z 2118/2218 13005KT P6SM SCT200
     FM212000 04005KT P6SM VCTS SCT060CB BKN150
     FM220200 VRB03KT P6SM BKN070 BKN200
     FM221400 24005KT P6SM SCT100 BKN150=



000
FTUS46 KOTX 211737
TAFMWH
TAF
KMWH 211737Z 2118/2218 15003KT P6SM SCT110
     FM212200 16007KT P6SM VCSH SCT080 BKN200
     FM220500 VRB04KT P6SM SCT100 BKN150
     FM221200 34004KT P6SM SCT050 BKN100=



000
FTUS46 KOTX 211737
TAFLWS
TAF
KLWS 211737Z 2118/2218 20005KT P6SM BKN120
     FM212000 34005KT P6SM VCTS BKN050CB BKN150
     FM220200 22005KT P6SM BKN100 BKN150=



000
FTUS46 KOTX 211737
TAFGEG
TAF
KGEG 211737Z 2118/2218 09007KT P6SM FEW080 SCT120
     FM221200 08005KT P6SM FEW050 SCT100=



000
FTUS46 KOTX 211737
TAFGEG
TAF
KGEG 211737Z 2118/2218 09007KT P6SM FEW080 SCT120
     FM221200 08005KT P6SM FEW050 SCT100=



000
FTUS46 KOTX 211737
TAFLWS
TAF
KLWS 211737Z 2118/2218 20005KT P6SM BKN120
     FM212000 34005KT P6SM VCTS BKN050CB BKN150
     FM220200 22005KT P6SM BKN100 BKN150=



000
FTUS46 KOTX 211737
TAFMWH
TAF
KMWH 211737Z 2118/2218 15003KT P6SM SCT110
     FM212200 16007KT P6SM VCSH SCT080 BKN200
     FM220500 VRB04KT P6SM SCT100 BKN150
     FM221200 34004KT P6SM SCT050 BKN100=



000
FTUS46 KOTX 211120
TAFEAT
TAF
KEAT 211120Z 2112/2212 29006KT P6SM FEW090 BKN200
     FM212200 12005KT P6SM VCSH SCT070 BKN200
     FM220600 31008KT P6SM BKN250=



000
FTUS46 KOTX 211120
TAFSFF
TAF
KSFF 211120Z 2112/2212 03005KT P6SM SCT100 BKN250=



000
FTUS46 KOTX 211120
TAFEAT
TAF
KEAT 211120Z 2112/2212 29006KT P6SM FEW090 BKN200
     FM212200 12005KT P6SM VCSH SCT070 BKN200
     FM220600 31008KT P6SM BKN250=



000
FTUS46 KOTX 211120
TAFGEG
TAF
KGEG 211120Z 2112/2212 06007KT P6SM SCT100 BKN250=



000
FTUS46 KOTX 211120
TAFLWS
TAF
KLWS 211120Z 2112/2212 20005KT P6SM SCT100 BKN200
     FM211900 34005KT P6SM VCTS BKN100CB BKN200
     FM220300 22005KT P6SM SCT120 BKN200=



000
FTUS46 KOTX 211120
TAFMWH
TAF
KMWH 211120Z 2112/2212 VRB03KT P6SM SCT110 BKN200
     FM212200 15007KT P6SM VCSH SCT080 BKN250
     FM220500 VRB04KT P6SM SCT100 BKN200=



000
FTUS46 KOTX 211120
TAFSFF
TAF
KSFF 211120Z 2112/2212 03005KT P6SM SCT100 BKN250=



000
FTUS46 KOTX 211120
TAFGEG
TAF
KGEG 211120Z 2112/2212 06007KT P6SM SCT100 BKN250=



000
FTUS46 KOTX 211120
TAFCOE
TAF
KCOE 211120Z 2112/2212 04007KT P6SM SCT120 BKN250
      AMD LTD TO CLD AND VIS=



000
FTUS46 KOTX 211120
TAFPUW
TAF
KPUW 211120Z 2112/2212 VRB04KT P6SM BKN200
     FM212000 04005KT P6SM VCTS SCT090CB BKN200
     FM220200 VRB03KT P6SM SCT100 BKN200=



000
FTUS46 KOTX 211120
TAFPUW
TAF
KPUW 211120Z 2112/2212 VRB04KT P6SM BKN200
     FM212000 04005KT P6SM VCTS SCT090CB BKN200
     FM220200 VRB03KT P6SM SCT100 BKN200=



000
FTUS46 KOTX 211120
TAFLWS
TAF
KLWS 211120Z 2112/2212 20005KT P6SM SCT100 BKN200
     FM211900 34005KT P6SM VCTS BKN100CB BKN200
     FM220300 22005KT P6SM SCT120 BKN200=



000
FTUS46 KOTX 211120
TAFSFF
TAF
KSFF 211120Z 2112/2212 03005KT P6SM SCT100 BKN250=



000
FTUS46 KOTX 211120
TAFGEG
TAF
KGEG 211120Z 2112/2212 06007KT P6SM SCT100 BKN250=



000
FTUS46 KOTX 211120
TAFLWS
TAF
KLWS 211120Z 2112/2212 20005KT P6SM SCT100 BKN200
     FM211900 34005KT P6SM VCTS BKN100CB BKN200
     FM220300 22005KT P6SM SCT120 BKN200=



000
FTUS46 KOTX 211120
TAFMWH
TAF
KMWH 211120Z 2112/2212 VRB03KT P6SM SCT110 BKN200
     FM212200 15007KT P6SM VCSH SCT080 BKN250
     FM220500 VRB04KT P6SM SCT100 BKN200=



000
FTUS46 KOTX 211120
TAFLWS
TAF
KLWS 211120Z 2112/2212 20005KT P6SM SCT100 BKN200
     FM211900 34005KT P6SM VCTS BKN100CB BKN200
     FM220300 22005KT P6SM SCT120 BKN200=



000
FTUS46 KOTX 211120
TAFSFF
TAF
KSFF 211120Z 2112/2212 03005KT P6SM SCT100 BKN250=



000
FTUS46 KOTX 211120
TAFEAT
TAF
KEAT 211120Z 2112/2212 29006KT P6SM FEW090 BKN200
     FM212200 12005KT P6SM VCSH SCT070 BKN200
     FM220600 31008KT P6SM BKN250=



000
FTUS46 KOTX 211120
TAFPUW
TAF
KPUW 211120Z 2112/2212 VRB04KT P6SM BKN200
     FM212000 04005KT P6SM VCTS SCT090CB BKN200
     FM220200 VRB03KT P6SM SCT100 BKN200=



000
FTUS46 KOTX 211120
TAFEAT
TAF
KEAT 211120Z 2112/2212 29006KT P6SM FEW090 BKN200
     FM212200 12005KT P6SM VCSH SCT070 BKN200
     FM220600 31008KT P6SM BKN250=



000
FTUS46 KOTX 211120
TAFGEG
TAF
KGEG 211120Z 2112/2212 06007KT P6SM SCT100 BKN250=



000
FTUS46 KOTX 211120
TAFMWH
TAF
KMWH 211120Z 2112/2212 VRB03KT P6SM SCT110 BKN200
     FM212200 15007KT P6SM VCSH SCT080 BKN250
     FM220500 VRB04KT P6SM SCT100 BKN200=



000
FTUS46 KOTX 211120
TAFCOE
TAF
KCOE 211120Z 2112/2212 04007KT P6SM SCT120 BKN250
      AMD LTD TO CLD AND VIS=



000
FTUS46 KOTX 211120
TAFCOE
TAF
KCOE 211120Z 2112/2212 04007KT P6SM SCT120 BKN250
      AMD LTD TO CLD AND VIS=



000
FTUS46 KOTX 211120
TAFPUW
TAF
KPUW 211120Z 2112/2212 VRB04KT P6SM BKN200
     FM212000 04005KT P6SM VCTS SCT090CB BKN200
     FM220200 VRB03KT P6SM SCT100 BKN200=



000
FTUS46 KOTX 211120
TAFCOE
TAF
KCOE 211120Z 2112/2212 04007KT P6SM SCT120 BKN250
      AMD LTD TO CLD AND VIS=



000
FTUS46 KOTX 211120
TAFMWH
TAF
KMWH 211120Z 2112/2212 VRB03KT P6SM SCT110 BKN200
     FM212200 15007KT P6SM VCSH SCT080 BKN250
     FM220500 VRB04KT P6SM SCT100 BKN200=



000
FTUS46 KOTX 210525
TAFMWH
TAF
KMWH 210525Z 2106/2206 33004KT P6SM BKN200
     FM211500 09080KT P6SM SCT200
     FM212200 15007KT P6SM VCSH SCT080 BKN250=



000
FTUS46 KOTX 210525
TAFEAT
TAF
KEAT 210525Z 2106/2206 29006KT P6SM FEW090 BKN200
     FM212200 12005KT P6SM VCSH SCT070 BKN200=



000
FTUS46 KOTX 210525
TAFPUW
TAF
KPUW 210525Z 2106/2206 VRB04KT P6SM BKN200
     FM212000 04005KT P6SM VCTS SCT090CB BKN200=



000
FTUS46 KOTX 210525
TAFGEG
TAF
KGEG 210525Z 2106/2206 06007KT P6SM FEW080 SCT250=



000
FTUS46 KOTX 210525
TAFLWS
TAF
KLWS 210525Z 2106/2206 20005KT P6SM VCSH FEW100 BKN200
     FM212100 34005KT P6SM VCTS SCT100CB BKN200=



000
FTUS46 KOTX 210525
TAFCOE
TAF
KCOE 210525Z 2106/2206 04007KT P6SM SCT080 SCT250
      AMD LTD TO CLD AND VIS=



000
FTUS46 KOTX 210525
TAFSFF
TAF
KSFF 210525Z 2106/2206 03005KT P6SM FEW080 SCT250=



000
FTUS46 KOTX 210525
TAFMWH
TAF
KMWH 210525Z 2106/2206 33004KT P6SM BKN200
     FM211500 09080KT P6SM SCT200
     FM212200 15007KT P6SM VCSH SCT080 BKN250=



000
FTUS46 KOTX 210525
TAFCOE
TAF
KCOE 210525Z 2106/2206 04007KT P6SM SCT080 SCT250
      AMD LTD TO CLD AND VIS=



000
FTUS46 KOTX 210525
TAFGEG
TAF
KGEG 210525Z 2106/2206 06007KT P6SM FEW080 SCT250=



000
FTUS46 KOTX 210525
TAFCOE
TAF
KCOE 210525Z 2106/2206 04007KT P6SM SCT080 SCT250
      AMD LTD TO CLD AND VIS=



000
FTUS46 KOTX 210525
TAFGEG
TAF
KGEG 210525Z 2106/2206 06007KT P6SM FEW080 SCT250=



000
FTUS46 KOTX 210525
TAFPUW
TAF
KPUW 210525Z 2106/2206 VRB04KT P6SM BKN200
     FM212000 04005KT P6SM VCTS SCT090CB BKN200=



000
FTUS46 KOTX 210525
TAFLWS
TAF
KLWS 210525Z 2106/2206 20005KT P6SM VCSH FEW100 BKN200
     FM212100 34005KT P6SM VCTS SCT100CB BKN200=



000
FTUS46 KOTX 210525
TAFMWH
TAF
KMWH 210525Z 2106/2206 33004KT P6SM BKN200
     FM211500 09080KT P6SM SCT200
     FM212200 15007KT P6SM VCSH SCT080 BKN250=



000
FTUS46 KOTX 210525
TAFEAT
TAF
KEAT 210525Z 2106/2206 29006KT P6SM FEW090 BKN200
     FM212200 12005KT P6SM VCSH SCT070 BKN200=



000
FTUS46 KOTX 210525
TAFEAT
TAF
KEAT 210525Z 2106/2206 29006KT P6SM FEW090 BKN200
     FM212200 12005KT P6SM VCSH SCT070 BKN200=



000
FTUS46 KOTX 210525
TAFCOE
TAF
KCOE 210525Z 2106/2206 04007KT P6SM SCT080 SCT250
      AMD LTD TO CLD AND VIS=



000
FTUS46 KOTX 210525
TAFPUW
TAF
KPUW 210525Z 2106/2206 VRB04KT P6SM BKN200
     FM212000 04005KT P6SM VCTS SCT090CB BKN200=



000
FTUS46 KOTX 210525
TAFLWS
TAF
KLWS 210525Z 2106/2206 20005KT P6SM VCSH FEW100 BKN200
     FM212100 34005KT P6SM VCTS SCT100CB BKN200=



000
FTUS46 KOTX 210525
TAFMWH
TAF
KMWH 210525Z 2106/2206 33004KT P6SM BKN200
     FM211500 09080KT P6SM SCT200
     FM212200 15007KT P6SM VCSH SCT080 BKN250=



000
FTUS46 KOTX 210525
TAFSFF
TAF
KSFF 210525Z 2106/2206 03005KT P6SM FEW080 SCT250=



000
FTUS46 KOTX 210525
TAFSFF
TAF
KSFF 210525Z 2106/2206 03005KT P6SM FEW080 SCT250=



000
FTUS46 KOTX 210525
TAFSFF
TAF
KSFF 210525Z 2106/2206 03005KT P6SM FEW080 SCT250=



000
FTUS46 KOTX 210525
TAFPUW
TAF
KPUW 210525Z 2106/2206 VRB04KT P6SM BKN200
     FM212000 04005KT P6SM VCTS SCT090CB BKN200=



000
FTUS46 KOTX 210525
TAFGEG
TAF
KGEG 210525Z 2106/2206 06007KT P6SM FEW080 SCT250=



000
FTUS46 KOTX 210525
TAFEAT
TAF
KEAT 210525Z 2106/2206 29006KT P6SM FEW090 BKN200
     FM212200 12005KT P6SM VCSH SCT070 BKN200=



000
FTUS46 KOTX 210525
TAFLWS
TAF
KLWS 210525Z 2106/2206 20005KT P6SM VCSH FEW100 BKN200
     FM212100 34005KT P6SM VCTS SCT100CB BKN200=



000
FTUS46 KOTX 210400 AAA
TAFMWH
TAF AMD
KMWH 210400Z 2104/2124 VRB04KT P6SM SCT200
     FM211900 15007KT P6SM SCT080 BKN250=



000
FTUS46 KOTX 202333 CCA
TAFLWS
TAF COR
KLWS 202333Z 2100/2124 35006KT P6SM FEW100 BKN200
     FM210400 20005KT P6SM VCSH FEW100 SCT200
     FM210700 VRB03KT P6SM SCT200
     FM212100 34005KT P6SM VCTS SCT100CB BKN200=



000
FTUS46 KOTX 202333 CCA
TAFLWS
TAF COR
KLWS 202333Z 2100/2124 35006KT P6SM FEW100 BKN200
     FM210400 20005KT P6SM VCSH FEW100 SCT200
     FM210700 VRB03KT P6SM SCT200
     FM212100 34005KT P6SM VCTS SCT100CB BKN200=



000
FTUS46 KOTX 202333 CCA
TAFLWS
TAF COR
KLWS 202333Z 2100/2124 35006KT P6SM FEW100 BKN200
     FM210400 20005KT P6SM VCSH FEW100 SCT200
     FM210700 VRB03KT P6SM SCT200
     FM212100 34005KT P6SM VCTS SCT100CB BKN200=



000
FTUS46 KOTX 202333 CCA
TAFLWS
TAF COR
KLWS 202333Z 2100/2124 35006KT P6SM FEW100 BKN200
     FM210400 20005KT P6SM VCSH FEW100 SCT200
     FM210700 VRB03KT P6SM SCT200
     FM212100 34005KT P6SM VCTS SCT100CB BKN200=



000
FTUS46 KOTX 202332
TAFPUW
TAF
KPUW 202332Z 2100/2124 15004KT P6SM SCT200
     FM211000 10006KT P6SM SCT100 BKN200
     FM212200 04005KT P6SM VCTS SCT090CB BKN200=



000
FTUS46 KOTX 202332
TAFPUW
TAF
KPUW 202332Z 2100/2124 15004KT P6SM SCT200
     FM211000 10006KT P6SM SCT100 BKN200
     FM212200 04005KT P6SM VCTS SCT090CB BKN200=



000
FTUS46 KOTX 202332
TAFPUW
TAF
KPUW 202332Z 2100/2124 15004KT P6SM SCT200
     FM211000 10006KT P6SM SCT100 BKN200
     FM212200 04005KT P6SM VCTS SCT090CB BKN200=



000
FTUS46 KOTX 202332
TAFPUW
TAF
KPUW 202332Z 2100/2124 15004KT P6SM SCT200
     FM211000 10006KT P6SM SCT100 BKN200
     FM212200 04005KT P6SM VCTS SCT090CB BKN200=



000
FTUS46 KOTX 202331
TAFGEG
TAF
KGEG 202331Z 2100/2124 06007KT P6SM FEW080 SCT250=



000
FTUS46 KOTX 202331
TAFGEG
TAF
KGEG 202331Z 2100/2124 06007KT P6SM FEW080 SCT250=



000
FTUS46 KOTX 202331
TAFEAT
TAF
KEAT 202331Z 2100/2124 29006KT P6SM FEW090 SCT200
     FM212100 VRB04KT P6SM SCT070 BKN200=



000
FTUS46 KOTX 202331
TAFCOE
TAF
KCOE 202331Z 2100/2124 04007KT P6SM SCT080 SCT250
      AMD LTD TO CLD AND VIS=



000
FTUS46 KOTX 202331
TAFGEG
TAF
KGEG 202331Z 2100/2124 06007KT P6SM FEW080 SCT250=



000
FTUS46 KOTX 202331
TAFSFF
TAF
KSFF 202331Z 2100/2124 03004KT P6SM FEW080 SCT250=



000
FTUS46 KOTX 202331
TAFEAT
TAF
KEAT 202331Z 2100/2124 29006KT P6SM FEW090 SCT200
     FM212100 VRB04KT P6SM SCT070 BKN200=



000
FTUS46 KOTX 202331
TAFSFF
TAF
KSFF 202331Z 2100/2124 03004KT P6SM FEW080 SCT250=



000
FTUS46 KOTX 202331
TAFMWH
TAF
KMWH 202331Z 2100/2124 03009G16KT P6SM SCT200
     FM211900 15007KT P6SM SCT080 BKN250=



000
FTUS46 KOTX 202331
TAFCOE
TAF
KCOE 202331Z 2100/2124 04007KT P6SM SCT080 SCT250
      AMD LTD TO CLD AND VIS=



000
FTUS46 KOTX 202331
TAFCOE
TAF
KCOE 202331Z 2100/2124 04007KT P6SM SCT080 SCT250
      AMD LTD TO CLD AND VIS=



000
FTUS46 KOTX 202331
TAFEAT
TAF
KEAT 202331Z 2100/2124 29006KT P6SM FEW090 SCT200
     FM212100 VRB04KT P6SM SCT070 BKN200=



000
FTUS46 KOTX 202331
TAFMWH
TAF
KMWH 202331Z 2100/2124 03009G16KT P6SM SCT200
     FM211900 15007KT P6SM SCT080 BKN250=



000
FTUS46 KOTX 202331
TAFMWH
TAF
KMWH 202331Z 2100/2124 03009G16KT P6SM SCT200
     FM211900 15007KT P6SM SCT080 BKN250=



000
FTUS46 KOTX 202331
TAFGEG
TAF
KGEG 202331Z 2100/2124 06007KT P6SM FEW080 SCT250=



000
FTUS46 KOTX 202331
TAFSFF
TAF
KSFF 202331Z 2100/2124 03004KT P6SM FEW080 SCT250=



000
FTUS46 KOTX 202331
TAFMWH
TAF
KMWH 202331Z 2100/2124 03009G16KT P6SM SCT200
     FM211900 15007KT P6SM SCT080 BKN250=



000
FTUS46 KOTX 202328
TAFLWS
TAF
KLWS 202328Z 2100/2124 35006KT P6SM FEW100 BKN200
     FM210400 20005KT P6SM VCSH FEW100 SCT200
     FM210700 VRB03KT P6SM SCT200
     FM212100 34005KT P6SM SCT100=



000
FTUS46 KOTX 202328
TAFLWS
TAF
KLWS 202328Z 2100/2124 35006KT P6SM FEW100 BKN200
     FM210400 20005KT P6SM VCSH FEW100 SCT200
     FM210700 VRB03KT P6SM SCT200
     FM212100 34005KT P6SM SCT100=



000
FTUS46 KOTX 202328
TAFLWS
TAF
KLWS 202328Z 2100/2124 35006KT P6SM FEW100 BKN200
     FM210400 20005KT P6SM VCSH FEW100 SCT200
     FM210700 VRB03KT P6SM SCT200
     FM212100 34005KT P6SM SCT100=



000
FTUS46 KOTX 202328
TAFLWS
TAF
KLWS 202328Z 2100/2124 35006KT P6SM FEW100 BKN200
     FM210400 20005KT P6SM VCSH FEW100 SCT200
     FM210700 VRB03KT P6SM SCT200
     FM212100 34005KT P6SM SCT100=



000
FTUS46 KOTX 201731
TAFCOE
TAF
KCOE 201731Z 2018/2118 07011G19KT P6SM FEW200
     FM210100 06010KT P6SM FEW090 SCT250
      AMD LTD TO CLD AND VIS=



000
FTUS46 KOTX 201731
TAFCOE
TAF
KCOE 201731Z 2018/2118 07011G19KT P6SM FEW200
     FM210100 06010KT P6SM FEW090 SCT250
      AMD LTD TO CLD AND VIS=



000
FTUS46 KOTX 201731
TAFSFF
TAF
KSFF 201731Z 2018/2118 08007G15KT P6SM FEW200
     FM210300 06003KT P6SM FEW090 SCT250=



000
FTUS46 KOTX 201731
TAFEAT
TAF
KEAT 201731Z 2018/2118 VRB05KT P6SM SCT200
     FM202000 11005KT P6SM SCT200
     FM210500 31007KT P6SM SCT200=



000
FTUS46 KOTX 201731
TAFGEG
TAF
KGEG 201731Z 2018/2118 06010G16KT P6SM FEW200
     FM210200 05006KT P6SM FEW080 SCT250=



000
FTUS46 KOTX 201731
TAFMWH
TAF
KMWH 201731Z 2018/2118 05010G18KT P6SM SCT200
     FM202200 05009KT P6SM SCT200
     FM210600 01006KT P6SM SCT200=



000
FTUS46 KOTX 201731
TAFLWS
TAF
KLWS 201731Z 2018/2118 10005KT P6SM SCT200
     FM210400 14005KT P6SM FEW100 SCT200
     FM211000 10005KT P6SM SCT100 BKN200=



000
FTUS46 KOTX 201731
TAFPUW
TAF
KPUW 201731Z 2018/2118 11007KT P6SM SCT200
     FM210300 VRB04KT P6SM FEW080 BKN200
     FM211000 10006KT P6SM SCT100 BKN200=



000
FTUS46 KOTX 201731
TAFPUW
TAF
KPUW 201731Z 2018/2118 11007KT P6SM SCT200
     FM210300 VRB04KT P6SM FEW080 BKN200
     FM211000 10006KT P6SM SCT100 BKN200=



000
FTUS46 KOTX 201731
TAFSFF
TAF
KSFF 201731Z 2018/2118 08007G15KT P6SM FEW200
     FM210300 06003KT P6SM FEW090 SCT250=



000
FTUS46 KOTX 201731
TAFSFF
TAF
KSFF 201731Z 2018/2118 08007G15KT P6SM FEW200
     FM210300 06003KT P6SM FEW090 SCT250=



000
FTUS46 KOTX 201731
TAFLWS
TAF
KLWS 201731Z 2018/2118 10005KT P6SM SCT200
     FM210400 14005KT P6SM FEW100 SCT200
     FM211000 10005KT P6SM SCT100 BKN200=



000
FTUS46 KOTX 201731
TAFEAT
TAF
KEAT 201731Z 2018/2118 VRB05KT P6SM SCT200
     FM202000 11005KT P6SM SCT200
     FM210500 31007KT P6SM SCT200=



000
FTUS46 KOTX 201731
TAFEAT
TAF
KEAT 201731Z 2018/2118 VRB05KT P6SM SCT200
     FM202000 11005KT P6SM SCT200
     FM210500 31007KT P6SM SCT200=



000
FTUS46 KOTX 201731
TAFCOE
TAF
KCOE 201731Z 2018/2118 07011G19KT P6SM FEW200
     FM210100 06010KT P6SM FEW090 SCT250
      AMD LTD TO CLD AND VIS=



000
FTUS46 KOTX 201731
TAFMWH
TAF
KMWH 201731Z 2018/2118 05010G18KT P6SM SCT200
     FM202200 05009KT P6SM SCT200
     FM210600 01006KT P6SM SCT200=



000
FTUS46 KOTX 201731
TAFMWH
TAF
KMWH 201731Z 2018/2118 05010G18KT P6SM SCT200
     FM202200 05009KT P6SM SCT200
     FM210600 01006KT P6SM SCT200=



000
FTUS46 KOTX 201731
TAFPUW
TAF
KPUW 201731Z 2018/2118 11007KT P6SM SCT200
     FM210300 VRB04KT P6SM FEW080 BKN200
     FM211000 10006KT P6SM SCT100 BKN200=



000
FTUS46 KOTX 201731
TAFGEG
TAF
KGEG 201731Z 2018/2118 06010G16KT P6SM FEW200
     FM210200 05006KT P6SM FEW080 SCT250=



000
FTUS46 KOTX 201731
TAFGEG
TAF
KGEG 201731Z 2018/2118 06010G16KT P6SM FEW200
     FM210200 05006KT P6SM FEW080 SCT250=



000
FTUS46 KOTX 201731
TAFLWS
TAF
KLWS 201731Z 2018/2118 10005KT P6SM SCT200
     FM210400 14005KT P6SM FEW100 SCT200
     FM211000 10005KT P6SM SCT100 BKN200=



000
FTUS46 KOTX 201731
TAFEAT
TAF
KEAT 201731Z 2018/2118 VRB05KT P6SM SCT200
     FM202000 11005KT P6SM SCT200
     FM210500 31007KT P6SM SCT200=



000
FTUS46 KOTX 201731
TAFGEG
TAF
KGEG 201731Z 2018/2118 06010G16KT P6SM FEW200
     FM210200 05006KT P6SM FEW080 SCT250=



000
FTUS46 KOTX 201731
TAFSFF
TAF
KSFF 201731Z 2018/2118 08007G15KT P6SM FEW200
     FM210300 06003KT P6SM FEW090 SCT250=



000
FTUS46 KOTX 201731
TAFCOE
TAF
KCOE 201731Z 2018/2118 07011G19KT P6SM FEW200
     FM210100 06010KT P6SM FEW090 SCT250
      AMD LTD TO CLD AND VIS=



000
FTUS46 KOTX 201731
TAFLWS
TAF
KLWS 201731Z 2018/2118 10005KT P6SM SCT200
     FM210400 14005KT P6SM FEW100 SCT200
     FM211000 10005KT P6SM SCT100 BKN200=



000
FTUS46 KOTX 201731
TAFMWH
TAF
KMWH 201731Z 2018/2118 05010G18KT P6SM SCT200
     FM202200 05009KT P6SM SCT200
     FM210600 01006KT P6SM SCT200=



000
FTUS46 KOTX 201731
TAFPUW
TAF
KPUW 201731Z 2018/2118 11007KT P6SM SCT200
     FM210300 VRB04KT P6SM FEW080 BKN200
     FM211000 10006KT P6SM SCT100 BKN200=



000
FTUS46 KOTX 201627 AAA
TAFSFF
TAF AMD
KSFF 201627Z 2016/2112 09007G15KT P6SM FEW250
     FM210300 02005KT P6SM FEW090 SCT250=



000
FTUS46 KOTX 201627 AAA
TAFSFF
TAF AMD
KSFF 201627Z 2016/2112 09007G15KT P6SM FEW250
     FM210300 02005KT P6SM FEW090 SCT250=



000
FTUS46 KOTX 201627 AAA
TAFSFF
TAF AMD
KSFF 201627Z 2016/2112 09007G15KT P6SM FEW250
     FM210300 02005KT P6SM FEW090 SCT250=



000
FTUS46 KOTX 201627 AAA
TAFSFF
TAF AMD
KSFF 201627Z 2016/2112 09007G15KT P6SM FEW250
     FM210300 02005KT P6SM FEW090 SCT250=



000
FTUS46 KOTX 201626 AAA
TAFGEG
TAF AMD
KGEG 201626Z 2016/2112 07010G16KT P6SM FEW250
     FM210100 05006KT P6SM FEW080 SCT250=



000
FTUS46 KOTX 201626 AAA
TAFGEG
TAF AMD
KGEG 201626Z 2016/2112 07010G16KT P6SM FEW250
     FM210100 05006KT P6SM FEW080 SCT250=



000
FTUS46 KOTX 201625 AAA
TAFMWH
TAF AMD
KMWH 201625Z 2016/2112 07009KT P6SM SCT200
     FM210700 01006KT P6SM SCT200=



000
FTUS46 KOTX 201625 AAA
TAFMWH
TAF AMD
KMWH 201625Z 2016/2112 07009KT P6SM SCT200
     FM210700 01006KT P6SM SCT200=



000
FTUS46 KOTX 201140
TAFCOE
TAF
KCOE 201140Z 2012/2112 03011KT P6SM FEW250
     FM201600 05013G19KT P6SM FEW250
     FM210100 04009KT P6SM FEW090 SCT250
      AMD LTD TO CLD AND VIS=



000
FTUS46 KOTX 201140
TAFEAT
TAF
KEAT 201140Z 2012/2112 28007KT P6SM FEW120
     FM202300 VRB04KT P6SM SCT120
     FM210300 31007KT P6SM SCT120=



000
FTUS46 KOTX 201140
TAFPUW
TAF
KPUW 201140Z 2012/2112 07006KT P6SM FEW130
     FM202000 VRB04KT P6SM FEW080 SCT250
      TEMPO 2023/2103 BKN090
     FM210400 05005KT P6SM BKN110=



000
FTUS46 KOTX 201140
TAFEAT
TAF
KEAT 201140Z 2012/2112 28007KT P6SM FEW120
     FM202300 VRB04KT P6SM SCT120
     FM210300 31007KT P6SM SCT120=



000
FTUS46 KOTX 201140
TAFLWS
TAF
KLWS 201140Z 2012/2112 13004KT P6SM SCT120
     FM201300 05005KT P6SM SCT200
     FM201900 32005KT P6SM FEW080 SCT200
      TEMPO 2023/2103 P6SM -SHRA BKN090=



000
FTUS46 KOTX 201140
TAFEAT
TAF
KEAT 201140Z 2012/2112 28007KT P6SM FEW120
     FM202300 VRB04KT P6SM SCT120
     FM210300 31007KT P6SM SCT120=



000
FTUS46 KOTX 201140
TAFLWS
TAF
KLWS 201140Z 2012/2112 13004KT P6SM SCT120
     FM201300 05005KT P6SM SCT200
     FM201900 32005KT P6SM FEW080 SCT200
      TEMPO 2023/2103 P6SM -SHRA BKN090=



000
FTUS46 KOTX 201140
TAFGEG
TAF
KGEG 201140Z 2012/2112 05007KT P6SM FEW250
     FM201600 04010G16KT P6SM FEW250
     FM210100 05006KT P6SM FEW080 SCT250=



000
FTUS46 KOTX 201140
TAFSFF
TAF
KSFF 201140Z 2012/2112 03004KT P6SM FEW250
     FM201600 04007G15KT P6SM FEW250
     FM202300 02005KT P6SM FEW090 SCT250=



000
FTUS46 KOTX 201140
TAFCOE
TAF
KCOE 201140Z 2012/2112 03011KT P6SM FEW250
     FM201600 05013G19KT P6SM FEW250
     FM210100 04009KT P6SM FEW090 SCT250
      AMD LTD TO CLD AND VIS=



000
FTUS46 KOTX 201140
TAFPUW
TAF
KPUW 201140Z 2012/2112 07006KT P6SM FEW130
     FM202000 VRB04KT P6SM FEW080 SCT250
      TEMPO 2023/2103 BKN090
     FM210400 05005KT P6SM BKN110=



000
FTUS46 KOTX 201140
TAFLWS
TAF
KLWS 201140Z 2012/2112 13004KT P6SM SCT120
     FM201300 05005KT P6SM SCT200
     FM201900 32005KT P6SM FEW080 SCT200
      TEMPO 2023/2103 P6SM -SHRA BKN090=



000
FTUS46 KOTX 201140
TAFMWH
TAF
KMWH 201140Z 2012/2112 03008KT P6SM FEW110=



000
FTUS46 KOTX 201140
TAFCOE
TAF
KCOE 201140Z 2012/2112 03011KT P6SM FEW250
     FM201600 05013G19KT P6SM FEW250
     FM210100 04009KT P6SM FEW090 SCT250
      AMD LTD TO CLD AND VIS=



000
FTUS46 KOTX 201140
TAFPUW
TAF
KPUW 201140Z 2012/2112 07006KT P6SM FEW130
     FM202000 VRB04KT P6SM FEW080 SCT250
      TEMPO 2023/2103 BKN090
     FM210400 05005KT P6SM BKN110=



000
FTUS46 KOTX 201140
TAFMWH
TAF
KMWH 201140Z 2012/2112 03008KT P6SM FEW110=



000
FTUS46 KOTX 201140
TAFGEG
TAF
KGEG 201140Z 2012/2112 05007KT P6SM FEW250
     FM201600 04010G16KT P6SM FEW250
     FM210100 05006KT P6SM FEW080 SCT250=



000
FTUS46 KOTX 201140
TAFSFF
TAF
KSFF 201140Z 2012/2112 03004KT P6SM FEW250
     FM201600 04007G15KT P6SM FEW250
     FM202300 02005KT P6SM FEW090 SCT250=



000
FTUS46 KOTX 201140
TAFGEG
TAF
KGEG 201140Z 2012/2112 05007KT P6SM FEW250
     FM201600 04010G16KT P6SM FEW250
     FM210100 05006KT P6SM FEW080 SCT250=



000
FTUS46 KOTX 201140
TAFMWH
TAF
KMWH 201140Z 2012/2112 03008KT P6SM FEW110=



000
FTUS46 KOTX 201140
TAFCOE
TAF
KCOE 201140Z 2012/2112 03011KT P6SM FEW250
     FM201600 05013G19KT P6SM FEW250
     FM210100 04009KT P6SM FEW090 SCT250
      AMD LTD TO CLD AND VIS=



000
FTUS46 KOTX 201140
TAFSFF
TAF
KSFF 201140Z 2012/2112 03004KT P6SM FEW250
     FM201600 04007G15KT P6SM FEW250
     FM202300 02005KT P6SM FEW090 SCT250=



000
FTUS46 KOTX 201140
TAFLWS
TAF
KLWS 201140Z 2012/2112 13004KT P6SM SCT120
     FM201300 05005KT P6SM SCT200
     FM201900 32005KT P6SM FEW080 SCT200
      TEMPO 2023/2103 P6SM -SHRA BKN090=



000
FTUS46 KOTX 201140
TAFGEG
TAF
KGEG 201140Z 2012/2112 05007KT P6SM FEW250
     FM201600 04010G16KT P6SM FEW250
     FM210100 05006KT P6SM FEW080 SCT250=



000
FTUS46 KOTX 201140
TAFMWH
TAF
KMWH 201140Z 2012/2112 03008KT P6SM FEW110=



000
FTUS46 KOTX 201140
TAFSFF
TAF
KSFF 201140Z 2012/2112 03004KT P6SM FEW250
     FM201600 04007G15KT P6SM FEW250
     FM202300 02005KT P6SM FEW090 SCT250=



000
FTUS46 KOTX 201140
TAFEAT
TAF
KEAT 201140Z 2012/2112 28007KT P6SM FEW120
     FM202300 VRB04KT P6SM SCT120
     FM210300 31007KT P6SM SCT120=



000
FTUS46 KOTX 201140
TAFPUW
TAF
KPUW 201140Z 2012/2112 07006KT P6SM FEW130
     FM202000 VRB04KT P6SM FEW080 SCT250
      TEMPO 2023/2103 BKN090
     FM210400 05005KT P6SM BKN110=



000
FTUS46 KOTX 200523
TAFCOE
TAF
KCOE 200523Z 2006/2106 05011KT P6SM SCT250
     FM201600 05012G18KT P6SM SCT250
     FM210100 04009KT P6SM FEW090 SCT250
      AMD LTD TO CLD AND VIS=



000
FTUS46 KOTX 200523
TAFLWS
TAF
KLWS 200523Z 2006/2106 14004KT P6SM FEW090 SCT200
     FM201300 05005KT P6SM SCT200
     FM201800 VRB04KT P6SM FEW080 SCT200=



000
FTUS46 KOTX 200523
TAFMWH
TAF
KMWH 200523Z 2006/2106 03008KT P6SM FEW100 SCT200=



000
FTUS46 KOTX 200523
TAFGEG
TAF
KGEG 200523Z 2006/2106 05007KT P6SM SCT250
     FM201600 04010G16KT P6SM SCT250
     FM210100 05006KT P6SM FEW080 SCT250=



000
FTUS46 KOTX 200523
TAFSFF
TAF
KSFF 200523Z 2006/2106 03004KT P6SM SCT250
     FM201600 04007G15KT P6SM SCT250
     FM210100 02005KT P6SM FEW090 SCT250=



000
FTUS46 KOTX 200523
TAFEAT
TAF
KEAT 200523Z 2006/2106 28007KT P6SM FEW100 SCT200=



000
FTUS46 KOTX 200523
TAFPUW
TAF
KPUW 200523Z 2006/2106 07006KT P6SM FEW090 SCT250
     FM202000 VRB04KT P6SM FEW080 SCT250=



000
FTUS46 KOTX 200523
TAFEAT
TAF
KEAT 200523Z 2006/2106 28007KT P6SM FEW100 SCT200=



000
FTUS46 KOTX 200523
TAFCOE
TAF
KCOE 200523Z 2006/2106 05011KT P6SM SCT250
     FM201600 05012G18KT P6SM SCT250
     FM210100 04009KT P6SM FEW090 SCT250
      AMD LTD TO CLD AND VIS=



000
FTUS46 KOTX 200523
TAFSFF
TAF
KSFF 200523Z 2006/2106 03004KT P6SM SCT250
     FM201600 04007G15KT P6SM SCT250
     FM210100 02005KT P6SM FEW090 SCT250=



000
FTUS46 KOTX 200523
TAFMWH
TAF
KMWH 200523Z 2006/2106 03008KT P6SM FEW100 SCT200=



000
FTUS46 KOTX 200523
TAFLWS
TAF
KLWS 200523Z 2006/2106 14004KT P6SM FEW090 SCT200
     FM201300 05005KT P6SM SCT200
     FM201800 VRB04KT P6SM FEW080 SCT200=



000
FTUS46 KOTX 200523
TAFPUW
TAF
KPUW 200523Z 2006/2106 07006KT P6SM FEW090 SCT250
     FM202000 VRB04KT P6SM FEW080 SCT250=



    US Dept of Commerce
    National Oceanic and Atmospheric Administration
    National Weather Service
    1325 East West Highway
    Silver Spring, MD 20910
    Page Author: NWS Internet Services Team
Disclaimer
Information Quality
Credits
Glossary
Privacy Policy
Freedom of Information Act (FOIA)
About Us
Career Opportunities